createdAt,value
2023-03-02T00:01:24.311Z,0.57
2023-03-02T00:03:51.369Z,0.58
2023-03-02T00:06:18.718Z,0.58
2023-03-02T00:08:46.568Z,0.61
2023-03-02T00:11:15.103Z,0.63
2023-03-02T00:13:42.628Z,0.65
2023-03-02T00:16:09.694Z,0.66
2023-03-02T00:18:36.600Z,0.69
2023-03-02T00:21:03.670Z,0.72
2023-03-02T00:23:30.593Z,0.75
2023-03-02T00:25:57.448Z,0.80
2023-03-02T00:28:24.268Z,0.85
2023-03-02T00:30:51.083Z,0.90
2023-03-02T00:33:19.317Z,0.95
2023-03-02T00:35:46.695Z,1.00
2023-03-02T00:38:13.484Z,1.02
2023-03-02T00:40:43.772Z,1.04
2023-03-02T00:43:10.543Z,1.07
2023-03-02T00:45:37.384Z,1.10
2023-03-02T00:48:04.303Z,1.12
2023-03-02T00:50:31.655Z,1.13
2023-03-02T00:52:58.540Z,1.15
2023-03-02T00:55:25.372Z,1.19
2023-03-02T00:57:54.761Z,1.24
2023-03-02T01:00:27.487Z,1.29
2023-03-02T01:02:56.015Z,1.35
2023-03-02T01:05:23.834Z,1.39
2023-03-02T01:07:50.745Z,1.45
2023-03-02T01:10:17.648Z,1.50
2023-03-02T01:12:44.560Z,1.56
2023-03-02T01:15:11.473Z,1.61
2023-03-02T01:17:39.252Z,1.65
2023-03-02T01:20:08.385Z,1.68
2023-03-02T01:22:35.250Z,1.72
2023-03-02T01:25:02.570Z,1.76
2023-03-02T01:27:29.358Z,1.78
2023-03-02T01:29:56.134Z,1.81
2023-03-02T01:32:23.131Z,1.84
2023-03-02T01:34:49.966Z,1.87
2023-03-02T01:37:16.860Z,1.90
2023-03-02T01:39:43.746Z,1.93
2023-03-02T01:42:10.578Z,1.95
2023-03-02T01:44:37.522Z,1.96
2023-03-02T01:47:05.986Z,1.98
2023-03-02T01:49:36.268Z,1.99
2023-03-02T01:52:03.559Z,1.99
2023-03-02T01:54:30.412Z,1.98
2023-03-02T01:57:02.793Z,1.97
2023-03-02T01:59:31.246Z,1.95
2023-03-02T02:01:59.720Z,1.95
2023-03-02T02:04:28.461Z,1.96
2023-03-02T02:06:59.128Z,1.97
2023-03-02T02:09:27.368Z,1.95
2023-03-02T02:11:54.465Z,1.95
2023-03-02T02:14:21.777Z,1.96
2023-03-02T02:16:48.722Z,1.98
2023-03-02T02:19:34.190Z,1.99
2023-03-02T02:22:01.289Z,2.01
2023-03-02T02:24:31.384Z,2.03
2023-03-02T02:26:58.563Z,2.04
2023-03-02T02:29:33.869Z,2.06
2023-03-02T02:32:03.423Z,2.07
2023-03-02T02:34:32.106Z,2.08
2023-03-02T02:37:02.918Z,2.08
2023-03-02T02:39:31.038Z,2.07
2023-03-02T02:41:58.970Z,2.07
2023-03-02T02:44:27.949Z,2.06
2023-03-02T02:46:54.919Z,2.07
2023-03-02T02:49:24.821Z,2.07
2023-03-02T02:51:51.964Z,2.08
2023-03-02T02:54:22.402Z,2.04
2023-03-02T02:56:51.436Z,2.01
2023-03-02T02:59:39.422Z,1.98
2023-03-02T03:02:06.544Z,1.93
2023-03-02T03:04:33.603Z,1.91
2023-03-02T03:07:02.983Z,1.89
2023-03-02T03:09:30.707Z,1.87
2023-03-02T03:12:01.269Z,1.84
2023-03-02T03:14:30.167Z,1.79
2023-03-02T03:16:57.501Z,1.74
2023-03-02T03:19:26.695Z,1.70
2023-03-02T03:21:55.334Z,1.68
2023-03-02T03:24:22.661Z,1.64
2023-03-02T03:26:51.360Z,1.61
2023-03-02T03:29:23.687Z,1.59
2023-03-02T03:31:51.285Z,1.52
2023-03-02T03:34:19.182Z,1.47
2023-03-02T03:36:47.389Z,1.43
2023-03-02T03:39:16.132Z,1.40
2023-03-02T03:41:43.288Z,1.37
2023-03-02T03:44:10.856Z,1.33
2023-03-02T03:46:38.326Z,1.35
2023-03-02T03:49:05.364Z,1.36
2023-03-02T03:51:34.737Z,1.38
2023-03-02T03:54:02.865Z,1.40
2023-03-02T03:56:35.735Z,1.42
2023-03-02T03:59:06.507Z,1.47
2023-03-02T04:01:37.195Z,1.50
2023-03-02T04:04:05.817Z,1.53
2023-03-02T04:06:33.320Z,1.56
2023-03-02T04:09:04.074Z,1.61
2023-03-02T04:11:33.498Z,1.64
2023-03-02T04:14:00.547Z,1.67
2023-03-02T04:16:27.697Z,1.68
2023-03-02T04:18:55.110Z,1.68
2023-03-02T04:21:22.464Z,1.68
2023-03-02T04:23:49.416Z,1.67
2023-03-02T04:26:16.732Z,1.66
2023-03-02T04:28:44.157Z,1.63
2023-03-02T04:31:11.456Z,1.60
2023-03-02T04:33:38.667Z,1.57
2023-03-02T04:36:06.599Z,1.55
2023-03-02T04:38:33.868Z,1.48
2023-03-02T04:41:02.066Z,1.38
2023-03-02T04:43:28.862Z,1.27
2023-03-02T04:45:55.629Z,1.21
2023-03-02T04:48:22.486Z,1.18
2023-03-02T04:50:50.244Z,1.10
2023-03-02T04:53:17.135Z,1.02
2023-03-02T04:55:43.996Z,0.95
2023-03-02T04:58:10.861Z,0.90
2023-03-02T05:00:37.655Z,0.85
2023-03-02T05:03:04.659Z,0.81
2023-03-02T05:05:31.716Z,0.74
2023-03-02T05:07:59.304Z,0.68
2023-03-02T05:10:27.092Z,0.65
2023-03-02T05:12:54.746Z,0.62
2023-03-02T05:15:22.629Z,0.59
2023-03-02T05:17:49.484Z,0.56
2023-03-02T05:20:16.640Z,0.52
2023-03-02T05:22:43.512Z,0.47
2023-03-02T05:25:10.913Z,0.39
2023-03-02T05:27:37.963Z,0.34
2023-03-02T05:30:05.976Z,0.29
2023-03-02T05:32:32.850Z,0.27
2023-03-02T05:35:00.049Z,0.25
2023-03-02T05:37:26.916Z,0.26
2023-03-02T05:39:56.039Z,0.25
2023-03-02T05:42:22.868Z,0.27
2023-03-02T05:44:49.792Z,0.28
2023-03-02T05:47:16.619Z,0.30
2023-03-02T05:49:43.543Z,0.34
2023-03-02T05:52:10.443Z,0.41
2023-03-02T05:54:37.388Z,0.46
2023-03-02T05:57:04.249Z,0.51
2023-03-02T05:59:31.023Z,0.58
2023-03-02T06:01:59.069Z,0.67
2023-03-02T06:04:26.004Z,0.78
2023-03-02T06:06:52.821Z,0.89
2023-03-02T06:09:19.737Z,1.01
2023-03-02T06:11:46.662Z,1.11
2023-03-02T06:14:13.496Z,1.21
2023-03-02T06:16:40.310Z,1.32
2023-03-02T06:19:07.174Z,1.45
2023-03-02T06:21:33.986Z,1.57
2023-03-02T06:24:00.906Z,1.70
2023-03-02T06:26:27.874Z,1.84
2023-03-02T06:28:54.599Z,1.96
2023-03-02T06:31:21.600Z,2.09
2023-03-02T06:33:48.629Z,2.21
2023-03-02T06:36:16.507Z,2.33
2023-03-02T06:38:43.427Z,2.42
2023-03-02T06:41:10.234Z,2.54
2023-03-02T06:43:37.126Z,2.63
2023-03-02T06:46:04.141Z,2.74
2023-03-02T06:48:31.077Z,2.83
2023-03-02T06:50:57.874Z,2.93
2023-03-02T06:53:24.832Z,3.02
2023-03-02T06:55:52.190Z,3.13
2023-03-02T06:58:19.187Z,3.22
2023-03-02T07:00:46.156Z,3.31
2023-03-02T07:03:13.363Z,3.42
2023-03-02T07:05:41.676Z,3.53
2023-03-02T07:08:08.910Z,3.64
2023-03-02T07:10:36.862Z,3.76
2023-03-02T07:13:03.677Z,3.88
2023-03-02T07:15:30.507Z,4.00
2023-03-02T07:17:57.354Z,4.13
2023-03-02T07:20:24.291Z,4.27
2023-03-02T07:22:51.211Z,4.43
2023-03-02T07:25:18.003Z,4.65
2023-03-02T07:27:44.970Z,4.85
2023-03-02T07:30:12.223Z,5.02
2023-03-02T07:32:39.154Z,5.17
2023-03-02T07:35:06.292Z,5.29
2023-03-02T07:37:33.162Z,5.42
2023-03-02T07:40:00.953Z,5.58
2023-03-02T07:42:28.087Z,5.74
2023-03-02T07:44:56.730Z,5.92
2023-03-02T07:47:23.747Z,6.13
2023-03-02T07:49:50.576Z,6.32
2023-03-02T07:52:17.623Z,6.45
2023-03-02T07:54:44.450Z,6.59
2023-03-02T07:57:13.380Z,6.71
2023-03-02T07:59:40.328Z,6.87
2023-03-02T08:02:09.141Z,7.04
2023-03-02T08:04:36.380Z,7.18
2023-03-02T08:07:03.327Z,7.32
2023-03-02T08:09:30.177Z,7.43
2023-03-02T08:11:57.537Z,7.53
2023-03-02T08:14:24.461Z,7.62
2023-03-02T08:16:51.961Z,7.70
2023-03-02T08:19:19.517Z,7.79
2023-03-02T08:21:46.392Z,7.95
2023-03-02T08:24:13.496Z,8.11
2023-03-02T08:26:40.376Z,8.24
2023-03-02T08:29:07.540Z,8.37
2023-03-02T08:31:34.856Z,8.50
2023-03-02T08:34:02.088Z,8.56
2023-03-02T08:36:29.055Z,8.59
2023-03-02T08:38:55.920Z,8.58
2023-03-02T08:41:23.207Z,8.73
2023-03-02T08:43:53.738Z,8.89
2023-03-02T08:46:20.891Z,9.15
2023-03-02T08:48:49.271Z,9.49
2023-03-02T08:51:17.899Z,10.01
2023-03-02T08:53:46.319Z,10.37
2023-03-02T08:56:20.736Z,10.89
2023-03-02T08:58:48.537Z,11.26
2023-03-02T09:01:20.245Z,11.55
2023-03-02T09:03:47.350Z,12.15
2023-03-02T09:06:14.596Z,12.44
2023-03-02T09:08:41.984Z,12.58
2023-03-02T09:11:09.125Z,12.80
2023-03-02T09:13:36.713Z,13.22
2023-03-02T09:16:04.253Z,13.63
2023-03-02T09:18:31.615Z,14.00
2023-03-02T09:20:58.575Z,14.18
2023-03-02T09:23:26.240Z,14.08
2023-03-02T09:25:53.903Z,14.13
2023-03-02T09:28:24.028Z,14.10
2023-03-02T09:30:52.113Z,13.90
2023-03-02T09:33:20.185Z,13.89
2023-03-02T09:35:47.340Z,14.24
2023-03-02T09:38:17.857Z,14.41
2023-03-02T09:40:58.322Z,14.44
2023-03-02T09:43:27.910Z,14.30
2023-03-02T09:46:12.131Z,14.45
2023-03-02T09:48:57.125Z,14.54
2023-03-02T09:51:39.242Z,14.78
2023-03-02T09:54:10.398Z,15.05
2023-03-02T09:56:41.949Z,14.81
2023-03-02T09:59:24.235Z,14.57
2023-03-02T10:02:11.297Z,14.82
2023-03-02T10:04:44.760Z,15.23
2023-03-02T10:07:38.003Z,15.17
2023-03-02T10:10:17.375Z,15.15
2023-03-02T10:13:02.810Z,14.59
2023-03-02T10:15:43.173Z,14.52
2023-03-02T10:18:17.398Z,14.82
2023-03-02T10:20:47.409Z,15.15
2023-03-02T10:23:43.544Z,15.49
2023-03-02T10:26:28.914Z,16.78
2023-03-02T10:29:14.576Z,17.55
2023-03-02T10:31:43.057Z,17.96
2023-03-02T10:34:10.620Z,17.93
2023-03-02T10:36:39.638Z,17.80
2023-03-02T10:39:11.893Z,17.66
2023-03-02T10:41:44.849Z,18.11
2023-03-02T10:44:15.536Z,18.12
2023-03-02T10:46:43.782Z,17.97
2023-03-02T10:49:23.335Z,17.86
2023-03-02T10:51:57.425Z,17.59
2023-03-02T10:54:25.730Z,17.51
2023-03-02T10:56:54.486Z,17.46
2023-03-02T10:59:24.549Z,17.56
2023-03-02T11:01:59.319Z,17.82
2023-03-02T11:04:26.449Z,18.24
2023-03-02T11:06:54.460Z,18.25
2023-03-02T11:09:21.665Z,18.00
2023-03-02T11:11:53.458Z,17.71
2023-03-02T11:14:22.513Z,17.64
2023-03-02T11:16:51.107Z,17.79
2023-03-02T11:19:38.936Z,17.97
2023-03-02T11:22:05.886Z,18.41
2023-03-02T11:24:42.056Z,17.99
2023-03-02T11:27:15.771Z,17.91
2023-03-02T11:29:52.572Z,18.21
2023-03-02T11:32:30.483Z,18.38
2023-03-02T11:35:00.043Z,18.41
2023-03-02T11:38:00.559Z,18.73
2023-03-02T11:40:38.640Z,18.87
2023-03-02T11:43:05.718Z,19.10
2023-03-02T11:45:34.927Z,19.30
2023-03-02T11:48:03.433Z,19.51
2023-03-02T11:50:32.347Z,19.89
2023-03-02T11:53:01.368Z,20.08
2023-03-02T11:55:31.226Z,20.13
2023-03-02T12:00:31.779Z,20.26
2023-03-02T12:03:06.134Z,20.49
2023-03-02T12:05:35.427Z,21.00
2023-03-02T12:08:04.247Z,21.06
2023-03-02T12:10:34.044Z,21.04
2023-03-02T12:13:00.867Z,20.93
2023-03-02T12:15:34.458Z,20.88
2023-03-02T12:18:01.398Z,20.63
2023-03-02T12:20:29.731Z,20.37
2023-03-02T12:23:07.250Z,20.33
2023-03-02T12:25:43.333Z,20.08
2023-03-02T12:28:48.735Z,19.57
2023-03-02T12:31:15.650Z,19.76
2023-03-02T12:33:49.341Z,20.33
2023-03-02T12:36:19.378Z,20.66
2023-03-02T12:38:52.468Z,20.73
2023-03-02T12:41:22.580Z,20.09
2023-03-02T12:43:54.141Z,19.88
2023-03-02T12:46:27.014Z,20.08
2023-03-02T12:48:57.240Z,20.14
2023-03-02T12:51:25.843Z,21.03
2023-03-02T12:54:02.911Z,21.59
2023-03-02T12:56:29.852Z,22.15
2023-03-02T12:58:56.976Z,22.28
2023-03-02T13:01:25.866Z,22.20
2023-03-02T13:03:53.720Z,22.29
2023-03-02T13:06:23.438Z,22.19
2023-03-02T13:08:52.296Z,21.68
2023-03-02T13:11:31.475Z,21.16
2023-03-02T13:13:59.315Z,21.13
2023-03-02T13:16:31.907Z,20.94
2023-03-02T13:19:00.344Z,20.91
2023-03-02T13:21:32.406Z,20.84
2023-03-02T13:23:59.793Z,20.84
2023-03-02T13:26:34.911Z,21.11
2023-03-02T13:29:04.703Z,21.49
2023-03-02T13:31:31.693Z,21.61
2023-03-02T13:33:59.960Z,22.33
2023-03-02T13:36:28.772Z,22.96
2023-03-02T13:38:58.673Z,23.18
2023-03-02T13:41:29.515Z,23.13
2023-03-02T13:43:58.508Z,22.93
2023-03-02T13:46:28.132Z,21.96
2023-03-02T13:49:14.214Z,21.72
2023-03-02T13:51:43.607Z,21.76
2023-03-02T13:54:20.815Z,21.86
2023-03-02T13:56:48.470Z,22.08
2023-03-02T13:59:16.778Z,22.33
2023-03-02T14:01:44.021Z,22.05
2023-03-02T14:04:12.515Z,21.43
2023-03-02T14:06:39.512Z,21.20
2023-03-02T14:09:06.391Z,21.42
2023-03-02T14:11:38.168Z,21.37
2023-03-02T14:14:06.007Z,21.84
2023-03-02T14:16:35.565Z,21.96
2023-03-02T14:19:02.925Z,21.83
2023-03-02T14:21:29.813Z,21.67
2023-03-02T14:23:58.382Z,21.49
2023-03-02T14:26:28.252Z,21.58
2023-03-02T14:29:04.910Z,21.58
2023-03-02T14:31:33.149Z,21.95
2023-03-02T14:34:00.180Z,22.04
2023-03-02T14:36:28.334Z,21.45
2023-03-02T14:38:56.376Z,20.88
2023-03-02T14:41:23.964Z,20.75
2023-03-02T14:43:50.751Z,20.80
2023-03-02T14:46:17.876Z,20.63
2023-03-02T14:48:45.000Z,20.42
2023-03-02T14:51:18.536Z,20.18
2023-03-02T14:53:45.485Z,19.79
2023-03-02T14:56:12.807Z,19.53
2023-03-02T14:58:39.689Z,19.25
2023-03-02T15:01:06.551Z,18.81
2023-03-02T15:03:33.495Z,18.66
2023-03-02T15:06:02.238Z,18.39
2023-03-02T15:08:29.319Z,17.99
2023-03-02T15:10:56.078Z,17.79
2023-03-02T15:13:22.967Z,17.71
2023-03-02T15:15:50.101Z,17.71
2023-03-02T15:18:19.044Z,17.62
2023-03-02T15:20:45.864Z,16.94
2023-03-02T15:23:12.925Z,16.21
2023-03-02T15:25:40.322Z,15.58
2023-03-02T15:28:07.250Z,15.17
2023-03-02T15:30:34.121Z,14.92
2023-03-02T15:33:00.944Z,14.65
2023-03-02T15:35:28.632Z,14.29
2023-03-02T15:37:57.709Z,13.79
2023-03-02T15:40:25.045Z,13.40
2023-03-02T15:42:52.615Z,12.95
2023-03-02T15:45:19.406Z,12.54
2023-03-02T15:47:46.279Z,12.13
2023-03-02T15:50:13.027Z,11.83
2023-03-02T15:52:41.056Z,11.53
2023-03-02T15:55:08.052Z,11.26
2023-03-02T15:57:38.830Z,10.94
2023-03-02T16:00:06.178Z,10.69
2023-03-02T16:02:33.107Z,10.50
2023-03-02T16:04:59.881Z,10.30
2023-03-02T16:07:26.739Z,10.13
2023-03-02T16:09:53.522Z,9.96
2023-03-02T16:12:22.899Z,9.80
2023-03-02T16:14:49.671Z,9.61
2023-03-02T16:17:19.790Z,9.44
2023-03-02T16:19:46.582Z,9.24
2023-03-02T16:22:13.412Z,9.02
2023-03-02T16:24:41.803Z,8.81
2023-03-02T16:27:08.888Z,8.59
2023-03-02T16:29:35.920Z,8.42
2023-03-02T16:32:02.982Z,8.25
2023-03-02T16:34:29.869Z,8.05
2023-03-02T16:36:56.757Z,7.85
2023-03-02T16:39:24.059Z,7.66
2023-03-02T16:41:51.033Z,7.44
2023-03-02T16:44:17.849Z,7.29
2023-03-02T16:46:44.679Z,7.16
2023-03-02T16:49:12.308Z,7.03
2023-03-02T16:51:39.215Z,6.89
2023-03-02T16:54:06.230Z,6.76
2023-03-02T16:56:33.137Z,6.65
2023-03-02T16:59:00.380Z,6.53
2023-03-02T17:01:27.679Z,6.41
2023-03-02T17:03:54.727Z,6.31
2023-03-02T17:06:22.496Z,6.21
2023-03-02T17:08:50.233Z,6.11
2023-03-02T17:11:17.368Z,6.02
2023-03-02T17:13:44.252Z,5.94
2023-03-02T17:16:11.327Z,5.85
2023-03-02T17:18:38.226Z,5.72
2023-03-02T17:21:05.066Z,5.61
2023-03-02T17:23:31.948Z,5.56
2023-03-02T17:25:58.751Z,5.53
2023-03-02T17:28:25.523Z,5.48
2023-03-02T17:30:52.592Z,5.44
2023-03-02T17:33:19.441Z,5.39
2023-03-02T17:35:46.369Z,5.33
2023-03-02T17:38:13.987Z,5.31
2023-03-02T17:40:41.310Z,5.28
2023-03-02T17:43:08.365Z,5.27
2023-03-02T17:45:35.366Z,5.24
2023-03-02T17:48:02.253Z,5.20
2023-03-02T17:50:31.270Z,5.15
2023-03-02T17:52:59.251Z,5.09
2023-03-02T17:55:26.250Z,5.03
2023-03-02T17:57:53.272Z,4.98
2023-03-02T18:00:21.932Z,4.94
2023-03-02T18:02:49.501Z,4.90
2023-03-02T18:05:16.450Z,4.85
2023-03-02T18:07:43.243Z,4.81
2023-03-02T18:10:10.481Z,4.75
2023-03-02T18:12:37.277Z,4.66
2023-03-02T18:15:04.492Z,4.58
2023-03-02T18:17:31.346Z,4.53
2023-03-02T18:19:58.189Z,4.50
2023-03-02T18:22:25.002Z,4.46
2023-03-02T18:24:52.358Z,4.41
2023-03-02T18:27:19.689Z,4.34
2023-03-02T18:29:46.614Z,4.30
2023-03-02T18:32:13.488Z,4.26
2023-03-02T18:34:40.267Z,4.24
2023-03-02T18:37:07.572Z,4.21
2023-03-02T18:39:34.730Z,4.17
2023-03-02T18:42:01.656Z,4.12
2023-03-02T18:44:30.620Z,4.06
2023-03-02T18:46:58.206Z,4.01
2023-03-02T18:49:25.157Z,3.97
2023-03-02T18:51:52.517Z,3.93
2023-03-02T18:54:19.347Z,3.87
2023-03-02T18:56:46.174Z,3.82
2023-03-02T18:59:13.466Z,3.79
2023-03-02T19:01:40.323Z,3.75
2023-03-02T19:04:07.253Z,3.71
2023-03-02T19:06:34.189Z,3.68
2023-03-02T19:09:01.165Z,3.66
2023-03-02T19:11:27.961Z,3.63
2023-03-02T19:13:54.761Z,3.60
2023-03-02T19:16:21.609Z,3.56
2023-03-02T19:18:49.477Z,3.54
2023-03-02T19:21:16.529Z,3.52
2023-03-02T19:23:45.565Z,3.48
2023-03-02T19:26:13.350Z,3.46
2023-03-02T19:28:40.190Z,3.42
2023-03-02T19:31:08.319Z,3.39
2023-03-02T19:33:35.049Z,3.36
2023-03-02T19:36:01.973Z,3.34
2023-03-02T19:38:28.877Z,3.33
2023-03-02T19:40:56.993Z,3.32
2023-03-02T19:43:24.108Z,3.30
2023-03-02T19:45:51.070Z,3.28
2023-03-02T19:48:18.676Z,3.27
2023-03-02T19:50:45.722Z,3.25
2023-03-02T19:53:13.242Z,3.21
2023-03-02T19:55:41.964Z,3.18
2023-03-02T19:58:10.731Z,3.17
2023-03-02T20:00:38.330Z,3.17
2023-03-02T20:03:07.984Z,3.15
2023-03-02T20:05:35.960Z,3.10
2023-03-02T20:08:02.788Z,3.03
2023-03-02T20:10:32.716Z,2.95
2023-03-02T20:13:00.165Z,2.88
2023-03-02T20:15:27.639Z,2.82
2023-03-02T20:17:54.583Z,2.74
2023-03-02T20:20:21.646Z,2.68
2023-03-02T20:22:48.972Z,2.61
2023-03-02T20:25:15.860Z,2.52
2023-03-02T20:27:42.670Z,2.43
2023-03-02T20:30:11.191Z,2.33
2023-03-02T20:32:38.113Z,2.26
2023-03-02T20:35:04.926Z,2.21
2023-03-02T20:37:32.061Z,2.18
2023-03-02T20:39:58.955Z,2.16
2023-03-02T20:42:26.950Z,2.16
2023-03-02T20:44:55.877Z,2.16
2023-03-02T20:47:22.717Z,2.15
2023-03-02T20:49:49.716Z,2.15
2023-03-02T20:52:16.627Z,2.15
2023-03-02T20:54:43.682Z,2.15
2023-03-02T20:57:14.750Z,2.15
2023-03-02T20:59:41.911Z,2.15
2023-03-02T21:02:10.090Z,2.15
2023-03-02T21:04:37.017Z,2.15
2023-03-02T21:07:03.967Z,2.13
2023-03-02T21:09:30.780Z,2.12
2023-03-02T21:11:58.303Z,2.10
2023-03-02T21:14:26.977Z,2.09
2023-03-02T21:16:54.226Z,2.07
2023-03-02T21:19:21.114Z,2.06
2023-03-02T21:21:48.336Z,2.02
2023-03-02T21:24:20.097Z,1.99
2023-03-02T21:26:48.013Z,1.93
2023-03-02T21:29:16.174Z,1.86
2023-03-02T21:31:43.326Z,1.81
2023-03-02T21:34:11.562Z,1.76
2023-03-02T21:36:38.559Z,1.72
2023-03-02T21:39:06.406Z,1.68
2023-03-02T21:41:35.351Z,1.66
2023-03-02T21:44:04.905Z,1.63
2023-03-02T21:46:32.961Z,1.61
2023-03-02T21:48:59.868Z,1.58
2023-03-02T21:51:26.743Z,1.55
2023-03-02T21:53:53.759Z,1.52
2023-03-02T21:56:23.211Z,1.48
2023-03-02T21:58:50.825Z,1.44
2023-03-02T22:01:17.684Z,1.35
2023-03-02T22:03:44.904Z,1.31
2023-03-02T22:06:22.210Z,1.26
2023-03-02T22:08:49.366Z,1.21
2023-03-02T22:11:35.887Z,1.17
2023-03-02T22:14:13.084Z,1.16
2023-03-02T22:16:41.050Z,1.13
2023-03-02T22:19:24.149Z,1.11
2023-03-02T22:21:51.549Z,1.09
2023-03-02T22:24:26.129Z,1.08
2023-03-02T22:27:01.982Z,1.05
2023-03-02T22:29:31.549Z,1.03
2023-03-02T22:32:05.819Z,1.02
2023-03-02T22:34:35.210Z,0.99
2023-03-02T22:37:06.267Z,0.94
2023-03-02T22:39:33.137Z,0.92
2023-03-02T22:42:05.702Z,0.91
2023-03-02T22:44:33.043Z,0.91
2023-03-02T22:47:00.225Z,0.90
2023-03-02T22:49:27.874Z,0.89
2023-03-02T22:51:57.003Z,0.88
2023-03-02T22:54:30.075Z,0.87
2023-03-02T22:56:57.000Z,0.87
2023-03-02T22:59:28.135Z,0.89
2023-03-02T23:01:59.433Z,0.90
2023-03-02T23:04:36.052Z,0.91
2023-03-02T23:07:12.294Z,0.93
2023-03-02T23:09:39.198Z,0.94
2023-03-02T23:12:15.232Z,0.96
2023-03-02T23:14:46.745Z,0.97
2023-03-02T23:17:16.442Z,0.98
2023-03-02T23:19:43.609Z,0.98
2023-03-02T23:22:10.759Z,0.98
2023-03-02T23:24:37.619Z,0.97
2023-03-02T23:27:04.644Z,0.92
2023-03-02T23:29:31.497Z,0.86
2023-03-02T23:31:58.582Z,0.78
2023-03-02T23:34:25.749Z,0.71
2023-03-02T23:36:52.722Z,0.65
2023-03-02T23:39:19.637Z,0.58
2023-03-02T23:41:46.573Z,0.50
2023-03-02T23:44:13.875Z,0.44
2023-03-02T23:46:40.701Z,0.39
2023-03-02T23:49:07.620Z,0.32
2023-03-02T23:51:34.603Z,0.26
2023-03-02T23:54:04.171Z,0.20
2023-03-02T23:56:31.672Z,0.17
2023-03-02T23:58:58.913Z,0.15
